createdAt,value
2023-05-12T00:02:14.137Z,95088.09
2023-05-12T00:04:40.935Z,95088.31
2023-05-12T00:07:07.676Z,95090.41
2023-05-12T00:09:34.558Z,95093.34
2023-05-12T00:12:02.080Z,95089.66
2023-05-12T00:14:28.734Z,95085.59
2023-05-12T00:16:55.381Z,95085.41
2023-05-12T00:19:22.186Z,95084.97
2023-05-12T00:21:48.771Z,95084.84
2023-05-12T00:24:15.328Z,95091.72
2023-05-12T00:26:42.112Z,95083.09
2023-05-12T00:29:08.766Z,95087.25
2023-05-12T00:31:35.520Z,95090.78
2023-05-12T00:34:02.249Z,95088.41
2023-05-12T00:36:28.967Z,95091.13
2023-05-12T00:38:55.529Z,95086.47
2023-05-12T00:41:22.355Z,95077.53
2023-05-12T00:43:49.052Z,95085.34
2023-05-12T00:46:15.978Z,95085.81
2023-05-12T00:48:43.452Z,95085.50
2023-05-12T00:51:10.417Z,95083.56
2023-05-12T00:53:48.276Z,95082.91
2023-05-12T00:56:19.047Z,95085.28
2023-05-12T00:58:46.821Z,95078.41
2023-05-12T01:01:14.948Z,95079.97
2023-05-12T01:03:42.223Z,95076.94
2023-05-12T01:06:39.109Z,95072.31
2023-05-12T01:09:07.856Z,95072.44
2023-05-12T01:11:34.609Z,95079.78
2023-05-12T01:14:01.369Z,95072.13
2023-05-12T01:16:33.153Z,95072.13
2023-05-12T01:19:04.034Z,95074.19
2023-05-12T01:21:31.057Z,95074.63
2023-05-12T01:24:06.206Z,95078.94
2023-05-12T01:26:33.181Z,95085.31
2023-05-12T01:29:01.322Z,95079.63
2023-05-12T01:31:29.248Z,95073.31
2023-05-12T01:33:56.483Z,95068.09
2023-05-12T01:36:24.286Z,95072.31
2023-05-12T01:38:51.608Z,95071.19
2023-05-12T01:41:18.322Z,95066.56
2023-05-12T01:43:44.975Z,95070.84
2023-05-12T01:46:12.692Z,95077.09
2023-05-12T01:48:41.073Z,95075.63
2023-05-12T01:51:08.733Z,95063.19
2023-05-12T01:53:36.282Z,95073.22
2023-05-12T01:56:02.975Z,95067.00
2023-05-12T01:58:31.569Z,95074.84
2023-05-12T02:00:59.360Z,95068.63
2023-05-12T02:03:27.020Z,95068.63
2023-05-12T02:05:57.054Z,95065.56
2023-05-12T02:08:24.150Z,95061.25
2023-05-12T02:10:51.007Z,95064.28
2023-05-12T02:13:17.638Z,95069.72
2023-05-12T02:15:44.379Z,95072.44
2023-05-12T02:18:11.113Z,95064.63
2023-05-12T02:20:39.164Z,95067.41
2023-05-12T02:23:05.969Z,95068.78
2023-05-12T02:25:33.602Z,95066.56
2023-05-12T02:28:00.371Z,95067.66
2023-05-12T02:30:27.181Z,95067.22
2023-05-12T02:32:53.906Z,95066.75
2023-05-12T02:35:20.631Z,95060.50
2023-05-12T02:37:47.879Z,95064.38
2023-05-12T02:40:15.935Z,95065.16
2023-05-12T02:42:42.642Z,95062.00
2023-05-12T02:45:10.228Z,95062.00
2023-05-12T02:47:37.258Z,95069.97
2023-05-12T02:50:05.090Z,95066.03
2023-05-12T02:52:32.244Z,95062.03
2023-05-12T02:54:58.996Z,95066.19
2023-05-12T02:57:25.643Z,95071.50
2023-05-12T02:59:52.379Z,95071.50
2023-05-12T03:02:19.147Z,95071.84
2023-05-12T03:04:45.776Z,95075.38
2023-05-12T03:07:12.722Z,95077.28
2023-05-12T03:09:39.486Z,95075.38
2023-05-12T03:12:06.543Z,95079.66
2023-05-12T03:14:33.174Z,95087.03
2023-05-12T03:16:59.983Z,95080.47
2023-05-12T03:19:26.576Z,95080.47
2023-05-12T03:21:53.932Z,95081.25
2023-05-12T03:24:20.694Z,95083.19
2023-05-12T03:26:47.369Z,95083.19
2023-05-12T03:29:14.343Z,95088.63
2023-05-12T03:31:41.178Z,95074.72
2023-05-12T03:34:07.902Z,95079.31
2023-05-12T03:36:34.660Z,95079.31
2023-05-12T03:39:01.759Z,95083.19
2023-05-12T03:41:28.419Z,95084.75
2023-05-12T03:43:55.083Z,95073.56
2023-05-12T03:46:21.746Z,95077.88
2023-05-12T03:48:48.622Z,95072.13
2023-05-12T03:51:15.463Z,95069.41
2023-05-12T03:53:42.124Z,95056.28
2023-05-12T03:56:08.908Z,95059.44
2023-05-12T03:58:35.527Z,95061.03
2023-05-12T04:01:02.543Z,95062.66
2023-05-12T04:03:29.924Z,95062.66
2023-05-12T04:06:03.494Z,95066.47
2023-05-12T04:08:30.559Z,95064.22
2023-05-12T04:10:58.320Z,95072.03
2023-05-12T04:13:25.730Z,95068.22
2023-05-12T04:15:55.502Z,95069.47
2023-05-12T04:18:22.948Z,95070.72
2023-05-12T04:20:49.716Z,95073.09
2023-05-12T04:23:16.468Z,95080.16
2023-05-12T04:25:43.327Z,95075.16
2023-05-12T04:28:12.060Z,95082.53
2023-05-12T04:30:40.649Z,95091.16
2023-05-12T04:33:07.352Z,95084.94
2023-05-12T04:35:34.289Z,95084.25
2023-05-12T04:38:01.650Z,95084.25
2023-05-12T04:40:28.462Z,95086.66
2023-05-12T04:42:55.410Z,95089.69
2023-05-12T04:45:22.337Z,95094.47
2023-05-12T04:47:49.242Z,95097.66
2023-05-12T04:50:15.909Z,95097.31
2023-05-12T04:52:42.522Z,95098.56
2023-05-12T04:55:09.518Z,95102.56
2023-05-12T04:57:36.160Z,95103.34
2023-05-12T05:00:04.432Z,95105.41
2023-05-12T05:02:31.842Z,95102.81
2023-05-12T05:04:58.830Z,95100.56
2023-05-12T05:07:28.371Z,95106.13
2023-05-12T05:09:55.361Z,95105.91
2023-05-12T05:12:22.056Z,95102.19
2023-05-12T05:14:48.847Z,95102.03
2023-05-12T05:17:15.748Z,95105.31
2023-05-12T05:19:55.117Z,95115.31
2023-05-12T05:22:25.529Z,95117.50
2023-05-12T05:24:52.268Z,95118.53
2023-05-12T05:27:19.230Z,95113.81
2023-05-12T05:29:46.008Z,95106.38
2023-05-12T05:32:12.676Z,95121.16
2023-05-12T05:34:39.632Z,95107.47
2023-05-12T05:37:06.393Z,95104.63
2023-05-12T05:39:33.292Z,95108.72
2023-05-12T05:42:00.215Z,95117.44
2023-05-12T05:44:26.900Z,95112.59
2023-05-12T05:46:54.721Z,95112.69
2023-05-12T05:49:23.412Z,95118.28
2023-05-12T05:51:50.708Z,95110.22
2023-05-12T05:54:17.739Z,95113.81
2023-05-12T05:56:45.334Z,95122.91
2023-05-12T05:59:11.975Z,95119.19
2023-05-12T06:01:38.866Z,95120.09
2023-05-12T06:04:05.790Z,95113.25
2023-05-12T06:06:32.513Z,95123.63
2023-05-12T06:09:00.109Z,95121.44
2023-05-12T06:11:27.209Z,95120.41
2023-05-12T06:13:53.814Z,95128.00
2023-05-12T06:16:20.548Z,95125.03
2023-05-12T06:18:47.321Z,95120.84
2023-05-12T06:21:13.909Z,95129.94
2023-05-12T06:23:40.570Z,95123.78
2023-05-12T06:26:07.137Z,95125.84
2023-05-12T06:28:33.960Z,95129.47
2023-05-12T06:31:00.689Z,95134.69
2023-05-12T06:33:27.273Z,95130.59
2023-05-12T06:35:53.975Z,95123.66
2023-05-12T06:38:20.640Z,95127.75
2023-05-12T06:40:47.577Z,95130.22
2023-05-12T06:43:14.226Z,95124.97
2023-05-12T06:45:44.592Z,95122.78
2023-05-12T06:48:11.456Z,95127.19
2023-05-12T06:50:38.227Z,95118.41
2023-05-12T06:53:04.884Z,95126.47
2023-05-12T06:55:31.542Z,95122.44
2023-05-12T06:57:58.306Z,95115.66
2023-05-12T07:00:26.089Z,95119.47
2023-05-12T07:02:53.081Z,95116.94
2023-05-12T07:05:20.268Z,95135.53
2023-05-12T07:07:47.012Z,95120.91
2023-05-12T07:10:13.765Z,95121.91
2023-05-12T07:12:41.677Z,95123.84
2023-05-12T07:15:08.848Z,95123.41
2023-05-12T07:17:35.617Z,95123.22
2023-05-12T07:20:02.355Z,95125.25
2023-05-12T07:22:29.148Z,95129.31
2023-05-12T07:24:56.033Z,95132.13
2023-05-12T07:27:22.833Z,95125.25
2023-05-12T07:29:49.455Z,95122.22
2023-05-12T07:32:16.018Z,95130.16
2023-05-12T07:34:42.720Z,95127.41
2023-05-12T07:37:09.299Z,95121.16
2023-05-12T07:39:36.054Z,95129.44
2023-05-12T07:42:02.782Z,95129.53
2023-05-12T07:44:29.776Z,95124.16
2023-05-12T07:46:56.505Z,95126.16
2023-05-12T07:49:23.181Z,95128.91
2023-05-12T07:51:49.798Z,95122.28
2023-05-12T07:54:16.581Z,95123.09
2023-05-12T07:56:43.278Z,95128.28
2023-05-12T07:59:09.872Z,95130.22
2023-05-12T08:01:36.452Z,95129.06
2023-05-12T08:04:03.273Z,95133.31
2023-05-12T08:06:30.006Z,95130.84
2023-05-12T08:08:56.582Z,95129.53
2023-05-12T08:11:23.877Z,95132.09
2023-05-12T08:13:50.491Z,95126.47
2023-05-12T08:16:17.220Z,95126.47
2023-05-12T08:18:44.146Z,95125.31
2023-05-12T08:21:11.020Z,95131.81
2023-05-12T08:23:37.730Z,95128.59
2023-05-12T08:26:04.918Z,95128.59
2023-05-12T08:28:31.647Z,95130.88
2023-05-12T08:30:58.881Z,95140.22
2023-05-12T08:33:25.609Z,95136.72
2023-05-12T08:35:52.396Z,95136.78
2023-05-12T08:38:19.190Z,95129.00
2023-05-12T08:41:16.282Z,95128.22
2023-05-12T08:43:51.531Z,95123.91
2023-05-12T08:46:18.723Z,95128.31
2023-05-12T08:48:46.755Z,95126.09
2023-05-12T08:51:14.006Z,95125.00
2023-05-12T08:53:41.950Z,95133.66
2023-05-12T08:58:42.102Z,95140.59
2023-05-12T09:01:11.867Z,95138.81
2023-05-12T09:03:38.898Z,95133.94
2023-05-12T09:06:06.727Z,95134.81
2023-05-12T09:08:33.726Z,95139.69
2023-05-12T09:11:01.094Z,95140.16
2023-05-12T09:13:52.621Z,95136.72
2023-05-12T09:16:24.894Z,95123.97
2023-05-12T09:18:54.541Z,95127.22
2023-05-12T09:21:21.886Z,95135.50
2023-05-12T09:23:57.743Z,95131.75
2023-05-12T09:26:26.596Z,95134.25
2023-05-12T09:28:54.809Z,95129.34
2023-05-12T09:31:24.022Z,95122.03
2023-05-12T09:33:52.225Z,95132.69
2023-05-12T09:36:22.724Z,95133.25
2023-05-12T09:38:59.947Z,95137.28
2023-05-12T09:41:26.673Z,95134.69
2023-05-12T09:43:53.410Z,95132.06
2023-05-12T09:46:20.180Z,95133.00
2023-05-12T09:48:49.415Z,95132.66
2023-05-12T09:51:17.492Z,95129.84
2023-05-12T09:53:44.165Z,95131.63
2023-05-12T09:56:13.132Z,95131.03
2023-05-12T09:58:44.873Z,95135.75
2023-05-12T10:01:22.528Z,95130.69
2023-05-12T10:03:55.676Z,95134.88
2023-05-12T10:06:27.832Z,95136.97
2023-05-12T10:09:00.061Z,95136.78
2023-05-12T10:11:29.264Z,95130.78
2023-05-12T10:13:57.308Z,95135.69
2023-05-12T10:16:24.405Z,95132.69
2023-05-12T10:18:51.573Z,95141.69
2023-05-12T10:21:19.111Z,95138.09
2023-05-12T10:23:46.789Z,95140.03
2023-05-12T10:26:14.443Z,95139.25
2023-05-12T10:28:41.427Z,95146.69
2023-05-12T10:34:30.550Z,95147.47
2023-05-12T10:36:58.345Z,95142.03
2023-05-12T10:39:29.585Z,95147.16
2023-05-12T10:42:06.841Z,95141.31
2023-05-12T10:44:33.526Z,95141.75
2023-05-12T10:47:00.179Z,95134.75
2023-05-12T10:49:34.572Z,95140.22
2023-05-12T10:52:01.198Z,95144.56
2023-05-12T10:54:27.857Z,95140.59
2023-05-12T10:56:59.575Z,95146.78
2023-05-12T10:59:26.969Z,95140.97
2023-05-12T11:02:16.840Z,95149.53
2023-05-12T11:04:52.808Z,95146.84
2023-05-12T11:07:24.133Z,95145.41
2023-05-12T11:09:58.504Z,95141.22
2023-05-12T11:12:33.204Z,95148.34
2023-05-12T11:15:01.679Z,95146.50
2023-05-12T11:17:28.782Z,95144.59
2023-05-12T11:19:55.609Z,95142.72
2023-05-12T11:22:23.748Z,95154.97
2023-05-12T11:24:50.962Z,95144.72
2023-05-12T11:27:19.112Z,95148.59
2023-05-12T11:29:55.205Z,95151.34
2023-05-12T11:32:21.810Z,95148.97
2023-05-12T11:34:48.391Z,95145.19
2023-05-12T11:37:14.986Z,95138.66
2023-05-12T11:39:41.674Z,95145.81
2023-05-12T11:42:12.691Z,95146.72
2023-05-12T11:44:47.687Z,95141.41
2023-05-12T11:47:15.427Z,95138.44
2023-05-12T11:49:50.362Z,95144.13
2023-05-12T11:52:18.288Z,95136.56
2023-05-12T11:54:48.512Z,95149.19
2023-05-12T11:57:25.639Z,95149.44
2023-05-12T12:00:06.017Z,95147.00
2023-05-12T12:02:33.146Z,95141.34
2023-05-12T12:05:00.037Z,95152.19
2023-05-12T12:07:30.942Z,95153.28
2023-05-12T12:09:57.694Z,95157.09
2023-05-12T12:12:24.645Z,95154.97
2023-05-12T12:14:51.189Z,95151.31
2023-05-12T12:17:17.736Z,95146.59
2023-05-12T12:19:44.398Z,95160.97
2023-05-12T12:22:10.961Z,95157.66
2023-05-12T12:24:37.536Z,95155.69
2023-05-12T12:27:04.445Z,95157.97
2023-05-12T12:29:31.086Z,95156.34
2023-05-12T12:31:57.610Z,95152.75
2023-05-12T12:34:24.322Z,95149.16
2023-05-12T12:36:51.765Z,95147.50
2023-05-12T12:39:19.917Z,95156.91
2023-05-12T12:41:47.173Z,95160.78
2023-05-12T12:44:13.898Z,95161.22
2023-05-12T12:46:40.533Z,95156.22
2023-05-12T12:49:07.424Z,95157.06
2023-05-12T12:51:44.958Z,95156.41
2023-05-12T12:54:12.646Z,95154.50
2023-05-12T12:56:39.276Z,95146.47
2023-05-12T12:59:05.946Z,95149.78
2023-05-12T13:01:33.660Z,95148.38
2023-05-12T13:04:00.337Z,95145.84
2023-05-12T13:06:27.035Z,95145.25
2023-05-12T13:08:53.636Z,95145.00
2023-05-12T13:11:20.238Z,95150.59
2023-05-12T13:13:47.078Z,95150.69
2023-05-12T13:16:13.857Z,95143.69
2023-05-12T13:18:40.637Z,95144.13
2023-05-12T13:21:07.235Z,95145.69
2023-05-12T13:23:33.875Z,95152.41
2023-05-12T13:26:00.441Z,95143.00
2023-05-12T13:28:27.020Z,95147.84
2023-05-12T13:30:53.800Z,95141.22
2023-05-12T13:33:20.580Z,95137.69
2023-05-12T13:35:47.277Z,95140.38
2023-05-12T13:38:13.875Z,95142.38
2023-05-12T13:40:40.510Z,95137.72
2023-05-12T13:43:07.141Z,95134.56
2023-05-12T13:45:33.787Z,95128.34
2023-05-12T13:48:00.481Z,95139.38
2023-05-12T13:50:27.129Z,95141.34
2023-05-12T13:52:53.698Z,95135.53
2023-05-12T13:55:21.682Z,95141.03
2023-05-12T13:57:49.123Z,95152.72
2023-05-12T14:00:15.972Z,95149.47
2023-05-12T14:02:45.547Z,95142.66
2023-05-12T14:05:12.233Z,95145.59
2023-05-12T14:07:38.844Z,95148.91
2023-05-12T14:10:05.930Z,95154.56
2023-05-12T14:12:32.572Z,95154.72
2023-05-12T14:15:04.721Z,95155.22
2023-05-12T14:17:45.897Z,95162.75
2023-05-12T14:20:12.768Z,95153.84
2023-05-12T14:22:39.387Z,95163.47
2023-05-12T14:25:06.428Z,95163.69
2023-05-12T14:27:33.136Z,95160.00
2023-05-12T14:29:59.747Z,95166.53
2023-05-12T14:32:26.568Z,95167.53
2023-05-12T14:34:53.216Z,95164.66
2023-05-12T14:37:19.795Z,95164.59
2023-05-12T14:39:46.447Z,95168.06
2023-05-12T14:42:13.088Z,95170.38
2023-05-12T14:44:39.756Z,95168.34
2023-05-12T14:47:08.246Z,95169.06
2023-05-12T14:49:35.728Z,95168.28
2023-05-12T14:52:02.844Z,95171.75
2023-05-12T14:54:29.556Z,95173.72
2023-05-12T14:56:56.141Z,95174.13
2023-05-12T14:59:22.892Z,95176.94
2023-05-12T15:01:49.547Z,95163.66
2023-05-12T15:04:16.200Z,95174.56
2023-05-12T15:06:42.906Z,95171.81
2023-05-12T15:09:09.544Z,95169.78
2023-05-12T15:11:36.158Z,95166.63
2023-05-12T15:14:02.738Z,95172.09
2023-05-12T15:16:31.638Z,95184.16
2023-05-12T15:18:58.303Z,95174.97
2023-05-12T15:21:24.995Z,95179.69
2023-05-12T15:23:51.602Z,95174.63
2023-05-12T15:26:32.071Z,95180.53
2023-05-12T15:29:00.119Z,95180.47
2023-05-12T15:31:29.641Z,95180.75
2023-05-12T15:33:57.211Z,95180.75
2023-05-12T15:36:24.887Z,95181.47
2023-05-12T15:38:51.550Z,95185.72
2023-05-12T15:41:18.233Z,95181.41
2023-05-12T15:43:44.824Z,95184.22
2023-05-12T15:46:11.906Z,95181.47
2023-05-12T15:48:39.147Z,95185.44
2023-05-12T15:51:06.007Z,95188.91
2023-05-12T15:53:32.728Z,95188.97
2023-05-12T15:56:04.543Z,95192.50
2023-05-12T15:58:31.832Z,95188.19
2023-05-12T16:00:58.955Z,95182.63
2023-05-12T16:03:26.008Z,95193.94
2023-05-12T16:05:52.853Z,95193.50
2023-05-12T16:08:19.431Z,95195.09
2023-05-12T16:10:46.066Z,95191.91
2023-05-12T16:13:12.629Z,95190.69
2023-05-12T16:15:39.223Z,95189.44
2023-05-12T16:18:08.387Z,95189.81
2023-05-12T16:20:36.965Z,95184.69
2023-05-12T16:23:03.828Z,95194.06
2023-05-12T16:25:30.483Z,95183.13
2023-05-12T16:27:57.425Z,95188.59
2023-05-12T16:30:24.278Z,95185.03
2023-05-12T16:32:50.978Z,95187.44
2023-05-12T16:35:17.704Z,95189.75
2023-05-12T16:37:44.386Z,95188.59
2023-05-12T16:40:11.181Z,95188.94
2023-05-12T16:42:38.027Z,95187.72
2023-05-12T16:45:04.997Z,95187.66
2023-05-12T16:47:31.563Z,95193.13
2023-05-12T16:49:58.424Z,95189.22
2023-05-12T16:52:25.954Z,95193.72
2023-05-12T16:54:52.701Z,95195.94
2023-05-12T16:57:19.799Z,95193.47
2023-05-12T16:59:46.872Z,95190.22
2023-05-12T17:02:13.548Z,95199.41
2023-05-12T17:04:40.174Z,95199.34
2023-05-12T17:07:06.869Z,95204.63
2023-05-12T17:09:33.617Z,95205.59
2023-05-12T17:12:00.174Z,95209.66
2023-05-12T17:14:26.797Z,95206.31
2023-05-12T17:16:53.403Z,95211.97
2023-05-12T17:19:20.243Z,95214.50
2023-05-12T17:21:46.952Z,95217.41
2023-05-12T17:24:13.630Z,95220.38
2023-05-12T17:26:40.214Z,95221.00
2023-05-12T17:29:06.946Z,95227.75
2023-05-12T17:31:33.871Z,95217.41
2023-05-12T17:34:00.482Z,95225.88
2023-05-12T17:36:27.093Z,95213.94
2023-05-12T17:38:53.752Z,95223.53
2023-05-12T17:41:20.506Z,95222.63
2023-05-12T17:43:47.063Z,95222.88
2023-05-12T17:46:13.880Z,95224.34
2023-05-12T17:48:40.580Z,95233.22
2023-05-12T17:51:07.391Z,95237.56
2023-05-12T17:53:34.533Z,95232.09
2023-05-12T17:56:01.148Z,95238.25
2023-05-12T17:58:27.720Z,95235.88
2023-05-12T18:00:54.507Z,95232.34
2023-05-12T18:03:21.185Z,95230.22
2023-05-12T18:05:47.808Z,95239.09
2023-05-12T18:08:14.407Z,95237.41
2023-05-12T18:10:41.068Z,95250.28
2023-05-12T18:13:07.778Z,95243.22
2023-05-12T18:15:34.406Z,95245.50
2023-05-12T18:18:01.179Z,95252.09
2023-05-12T18:20:27.860Z,95245.03
2023-05-12T18:22:54.816Z,95243.53
2023-05-12T18:25:21.570Z,95245.16
2023-05-12T18:27:48.372Z,95248.56
2023-05-12T18:30:15.147Z,95244.69
2023-05-12T18:32:41.815Z,95244.59
2023-05-12T18:35:08.891Z,95244.91
2023-05-12T18:37:35.488Z,95248.00
2023-05-12T18:40:02.161Z,95258.13
2023-05-12T18:42:28.831Z,95249.81
2023-05-12T18:44:55.664Z,95254.47
2023-05-12T18:47:22.416Z,95258.72
2023-05-12T18:49:49.029Z,95256.31
2023-05-12T18:52:15.607Z,95255.84
2023-05-12T18:54:42.244Z,95262.47
2023-05-12T18:57:08.852Z,95263.59
2023-05-12T18:59:35.507Z,95252.56
2023-05-12T19:02:02.370Z,95260.44
2023-05-12T19:04:29.117Z,95259.16
2023-05-12T19:06:55.731Z,95264.19
2023-05-12T19:09:22.345Z,95267.13
2023-05-12T19:11:48.915Z,95269.75
2023-05-12T19:14:15.499Z,95270.41
2023-05-12T19:16:42.223Z,95278.16
2023-05-12T19:19:08.923Z,95272.13
2023-05-12T19:21:35.565Z,95279.38
2023-05-12T19:24:02.202Z,95271.88
2023-05-12T19:26:29.258Z,95271.88
2023-05-12T19:28:58.720Z,95279.63
2023-05-12T19:31:25.332Z,95285.06
2023-05-12T19:33:52.286Z,95291.31
2023-05-12T19:36:18.979Z,95292.44
2023-05-12T19:38:45.587Z,95290.38
2023-05-12T19:41:12.248Z,95298.13
2023-05-12T19:43:38.860Z,95290.06
2023-05-12T19:46:05.545Z,95293.91
2023-05-12T19:48:32.257Z,95291.19
2023-05-12T19:50:58.879Z,95298.09
2023-05-12T19:53:25.442Z,95289.81
2023-05-12T19:55:52.149Z,95297.88
2023-05-12T19:58:18.739Z,95291.16
2023-05-12T20:00:52.875Z,95293.88
2023-05-12T20:03:19.639Z,95291.97
2023-05-12T20:05:48.436Z,95292.75
2023-05-12T20:08:15.725Z,95297.75
2023-05-12T20:10:42.527Z,95295.56
2023-05-12T20:13:09.232Z,95290.00
2023-05-12T20:15:35.999Z,95292.28
2023-05-12T20:18:02.812Z,95291.34
2023-05-12T20:20:29.488Z,95292.00
2023-05-12T20:22:56.144Z,95290.44
2023-05-12T20:25:23.022Z,95291.56
2023-05-12T20:27:49.809Z,95289.97
2023-05-12T20:30:16.428Z,95291.09
2023-05-12T20:32:43.289Z,95287.91
2023-05-12T20:35:09.938Z,95288.72
2023-05-12T20:37:36.572Z,95287.13
2023-05-12T20:40:03.354Z,95289.84
2023-05-12T20:42:29.925Z,95283.94
2023-05-12T20:44:56.578Z,95291.78
2023-05-12T20:47:23.270Z,95285.19
2023-05-12T20:49:54.939Z,95292.56
2023-05-12T20:52:21.583Z,95283.59
2023-05-12T20:54:48.309Z,95284.06
2023-05-12T20:57:14.896Z,95290.28
2023-05-12T20:59:41.528Z,95293.84
2023-05-12T21:02:08.288Z,95289.97
2023-05-12T21:04:34.941Z,95288.84
2023-05-12T21:07:01.611Z,95286.09
2023-05-12T21:09:28.186Z,95285.66
2023-05-12T21:11:54.827Z,95281.31
2023-05-12T21:14:21.444Z,95285.66
2023-05-12T21:16:48.040Z,95285.50
2023-05-12T21:19:14.685Z,95284.28
2023-05-12T21:21:41.338Z,95288.91
2023-05-12T21:24:08.067Z,95288.56
2023-05-12T21:26:34.666Z,95287.78
2023-05-12T21:29:01.272Z,95288.56
2023-05-12T21:31:27.955Z,95289.72
2023-05-12T21:33:54.624Z,95288.13
2023-05-12T21:36:21.266Z,95287.66
2023-05-12T21:38:47.850Z,95289.28
2023-05-12T21:41:14.532Z,95285.84
2023-05-12T21:43:41.091Z,95290.06
2023-05-12T21:46:07.842Z,95287.66
2023-05-12T21:48:34.565Z,95281.78
2023-05-12T21:51:02.692Z,95287.88
2023-05-12T21:53:29.347Z,95291.00
2023-05-12T21:55:56.033Z,95284.22
2023-05-12T21:58:22.700Z,95290.47
2023-05-12T22:00:52.673Z,95292.06
2023-05-12T22:03:20.037Z,95282.63
2023-05-12T22:05:46.803Z,95296.13
2023-05-12T22:08:13.367Z,95288.97
2023-05-12T22:10:40.099Z,95299.41
2023-05-12T22:13:06.672Z,95295.88
2023-05-12T22:15:33.549Z,95299.41
2023-05-12T22:18:00.243Z,95293.94
2023-05-12T22:20:27.360Z,95282.13
2023-05-12T22:22:53.951Z,95293.34
2023-05-12T22:25:20.680Z,95287.31
2023-05-12T22:27:47.270Z,95290.72
2023-05-12T22:30:14.244Z,95286.38
2023-05-12T22:32:40.884Z,95296.81
2023-05-12T22:35:09.082Z,95300.34
2023-05-12T22:37:35.681Z,95296.09
2023-05-12T22:40:02.531Z,95296.38
2023-05-12T22:42:29.260Z,95289.44
2023-05-12T22:44:55.805Z,95294.75
2023-05-12T22:47:22.431Z,95290.44
2023-05-12T22:49:49.198Z,95292.38
2023-05-12T22:52:15.847Z,95281.47
2023-05-12T22:54:42.551Z,95283.75
2023-05-12T22:57:09.274Z,95287.72
2023-05-12T22:59:35.919Z,95272.84
2023-05-12T23:02:02.586Z,95281.47
2023-05-12T23:04:29.307Z,95277.63
2023-05-12T23:06:55.898Z,95278.44
2023-05-12T23:09:22.522Z,95278.75
2023-05-12T23:11:49.120Z,95276.03
2023-05-12T23:14:15.793Z,95272.19
2023-05-12T23:16:42.514Z,95274.91
2023-05-12T23:19:09.359Z,95268.97
2023-05-12T23:21:36.050Z,95275.09
2023-05-12T23:24:02.660Z,95270.78
2023-05-12T23:26:29.311Z,95264.34
2023-05-12T23:28:55.994Z,95263.41
2023-05-12T23:31:22.716Z,95269.19
2023-05-12T23:33:49.536Z,95268.06
2023-05-12T23:36:16.128Z,95271.59
2023-05-12T23:38:42.845Z,95264.91
2023-05-12T23:41:09.484Z,95262.84
2023-05-12T23:43:39.122Z,95268.63
2023-05-12T23:46:05.926Z,95262.03
2023-05-12T23:48:32.628Z,95266.22
2023-05-12T23:50:59.289Z,95261.25
2023-05-12T23:53:25.871Z,95258.75
2023-05-12T23:55:52.499Z,95258.75
2023-05-12T23:58:19.224Z,95262.13
